sensor_id;sensor_type;location;lat;lon;timestamp;P1;durP1;ratioP1;P2;durP2;ratioP2
75426;SDS011;64007;50.632;13.700;2023-12-14T00:00:22;1.58;;;0.73;;
75426;SDS011;64007;50.632;13.700;2023-12-14T00:03:08;2.13;;;0.90;;
75426;SDS011;64007;50.632;13.700;2023-12-14T00:05:33;1.35;;;0.90;;
75426;SDS011;64007;50.632;13.700;2023-12-14T00:08:00;2.25;;;0.90;;
75426;SDS011;64007;50.632;13.700;2023-12-14T00:10:26;2.47;;;1.25;;
75426;SDS011;64007;50.632;13.700;2023-12-14T00:12:52;5.03;;;1.30;;
75426;SDS011;64007;50.632;13.700;2023-12-14T00:15:20;2.75;;;1.60;;
75426;SDS011;64007;50.632;13.700;2023-12-14T00:17:46;3.30;;;1.48;;
75426;SDS011;64007;50.632;13.700;2023-12-14T00:20:12;6.47;;;1.50;;
75426;SDS011;64007;50.632;13.700;2023-12-14T00:22:38;3.28;;;1.73;;
75426;SDS011;64007;50.632;13.700;2023-12-14T00:25:04;3.55;;;1.88;;
75426;SDS011;64007;50.632;13.700;2023-12-14T00:27:30;3.92;;;1.90;;
75426;SDS011;64007;50.632;13.700;2023-12-14T00:29:56;5.18;;;2.28;;
75426;SDS011;64007;50.632;13.700;2023-12-14T00:32:21;4.95;;;2.70;;
75426;SDS011;64007;50.632;13.700;2023-12-14T00:34:47;3.92;;;1.98;;
75426;SDS011;64007;50.632;13.700;2023-12-14T00:37:14;9.02;;;2.75;;
75426;SDS011;64007;50.632;13.700;2023-12-14T00:39:40;11.32;;;3.33;;
75426;SDS011;64007;50.632;13.700;2023-12-14T00:42:06;4.82;;;2.65;;
75426;SDS011;64007;50.632;13.700;2023-12-14T00:44:32;6.18;;;2.97;;
75426;SDS011;64007;50.632;13.700;2023-12-14T00:46:57;6.43;;;2.30;;
75426;SDS011;64007;50.632;13.700;2023-12-14T00:49:24;4.40;;;2.47;;
75426;SDS011;64007;50.632;13.700;2023-12-14T00:51:49;6.20;;;2.58;;
75426;SDS011;64007;50.632;13.700;2023-12-14T00:54:15;5.75;;;2.50;;
75426;SDS011;64007;50.632;13.700;2023-12-14T00:56:41;4.57;;;2.80;;
75426;SDS011;64007;50.632;13.700;2023-12-14T00:59:07;4.40;;;2.85;;
75426;SDS011;64007;50.632;13.700;2023-12-14T01:01:32;4.65;;;2.80;;
75426;SDS011;64007;50.632;13.700;2023-12-14T01:03:58;5.18;;;2.63;;
75426;SDS011;64007;50.632;13.700;2023-12-14T01:06:24;5.35;;;2.90;;
75426;SDS011;64007;50.632;13.700;2023-12-14T01:08:50;7.85;;;2.53;;
75426;SDS011;64007;50.632;13.700;2023-12-14T01:11:16;6.50;;;2.63;;
75426;SDS011;64007;50.632;13.700;2023-12-14T01:13:42;10.63;;;3.63;;
75426;SDS011;64007;50.632;13.700;2023-12-14T01:16:07;6.63;;;3.03;;
75426;SDS011;64007;50.632;13.700;2023-12-14T01:18:33;5.82;;;2.63;;
75426;SDS011;64007;50.632;13.700;2023-12-14T01:20:59;8.35;;;3.10;;
75426;SDS011;64007;50.632;13.700;2023-12-14T01:23:25;5.85;;;3.10;;
75426;SDS011;64007;50.632;13.700;2023-12-14T01:25:51;6.88;;;3.70;;
75426;SDS011;64007;50.632;13.700;2023-12-14T01:28:16;12.35;;;3.95;;
75426;SDS011;64007;50.632;13.700;2023-12-14T01:30:42;7.82;;;3.63;;
75426;SDS011;64007;50.632;13.700;2023-12-14T01:33:08;8.35;;;4.10;;
75426;SDS011;64007;50.632;13.700;2023-12-14T01:35:33;10.23;;;3.28;;
75426;SDS011;64007;50.632;13.700;2023-12-14T01:37:59;6.63;;;3.58;;
75426;SDS011;64007;50.632;13.700;2023-12-14T01:40:25;5.72;;;2.90;;
75426;SDS011;64007;50.632;13.700;2023-12-14T01:42:51;7.18;;;3.00;;
75426;SDS011;64007;50.632;13.700;2023-12-14T01:45:16;6.78;;;3.35;;
75426;SDS011;64007;50.632;13.700;2023-12-14T01:47:44;7.80;;;4.10;;
75426;SDS011;64007;50.632;13.700;2023-12-14T01:50:10;9.15;;;4.13;;
75426;SDS011;64007;50.632;13.700;2023-12-14T01:52:36;9.55;;;4.82;;
75426;SDS011;64007;50.632;13.700;2023-12-14T01:55:01;5.38;;;2.65;;
75426;SDS011;64007;50.632;13.700;2023-12-14T01:57:28;5.90;;;3.40;;
75426;SDS011;64007;50.632;13.700;2023-12-14T01:59:53;7.32;;;3.63;;
75426;SDS011;64007;50.632;13.700;2023-12-14T02:02:19;8.88;;;4.30;;
75426;SDS011;64007;50.632;13.700;2023-12-14T02:04:45;12.27;;;5.00;;
75426;SDS011;64007;50.632;13.700;2023-12-14T02:07:11;9.85;;;4.75;;
75426;SDS011;64007;50.632;13.700;2023-12-14T02:09:37;11.40;;;4.53;;
75426;SDS011;64007;50.632;13.700;2023-12-14T02:12:04;13.65;;;5.82;;
75426;SDS011;64007;50.632;13.700;2023-12-14T02:14:30;11.60;;;6.13;;
75426;SDS011;64007;50.632;13.700;2023-12-14T02:16:56;11.10;;;6.03;;
75426;SDS011;64007;50.632;13.700;2023-12-14T02:19:21;15.00;;;7.00;;
75426;SDS011;64007;50.632;13.700;2023-12-14T02:21:47;12.70;;;6.60;;
75426;SDS011;64007;50.632;13.700;2023-12-14T02:24:12;10.50;;;5.25;;
75426;SDS011;64007;50.632;13.700;2023-12-14T02:26:38;11.82;;;5.03;;
75426;SDS011;64007;50.632;13.700;2023-12-14T02:29:04;9.80;;;4.88;;
75426;SDS011;64007;50.632;13.700;2023-12-14T02:31:29;9.38;;;4.13;;
75426;SDS011;64007;50.632;13.700;2023-12-14T02:33:55;8.68;;;4.70;;
75426;SDS011;64007;50.632;13.700;2023-12-14T02:36:21;10.95;;;5.03;;
75426;SDS011;64007;50.632;13.700;2023-12-14T02:38:47;11.13;;;4.82;;
75426;SDS011;64007;50.632;13.700;2023-12-14T02:41:12;9.52;;;5.03;;
75426;SDS011;64007;50.632;13.700;2023-12-14T02:43:38;13.30;;;5.05;;
75426;SDS011;64007;50.632;13.700;2023-12-14T02:46:05;12.63;;;5.57;;
75426;SDS011;64007;50.632;13.700;2023-12-14T02:48:31;10.10;;;5.35;;
75426;SDS011;64007;50.632;13.700;2023-12-14T02:50:57;9.13;;;4.80;;
75426;SDS011;64007;50.632;13.700;2023-12-14T02:53:25;9.25;;;4.35;;
75426;SDS011;64007;50.632;13.700;2023-12-14T02:55:50;9.10;;;5.35;;
75426;SDS011;64007;50.632;13.700;2023-12-14T02:58:16;11.10;;;5.38;;
75426;SDS011;64007;50.632;13.700;2023-12-14T03:00:44;13.85;;;5.00;;
75426;SDS011;64007;50.632;13.700;2023-12-14T03:03:09;10.63;;;5.13;;
75426;SDS011;64007;50.632;13.700;2023-12-14T03:05:35;10.25;;;4.97;;
75426;SDS011;64007;50.632;13.700;2023-12-14T03:08:01;10.75;;;5.22;;
75426;SDS011;64007;50.632;13.700;2023-12-14T03:10:27;9.40;;;4.75;;
75426;SDS011;64007;50.632;13.700;2023-12-14T03:12:53;8.40;;;4.70;;
75426;SDS011;64007;50.632;13.700;2023-12-14T03:15:18;7.05;;;3.92;;
75426;SDS011;64007;50.632;13.700;2023-12-14T03:17:44;7.63;;;4.28;;
75426;SDS011;64007;50.632;13.700;2023-12-14T03:20:10;10.43;;;4.43;;
75426;SDS011;64007;50.632;13.700;2023-12-14T03:22:36;8.48;;;4.35;;
75426;SDS011;64007;50.632;13.700;2023-12-14T03:25:04;8.27;;;4.75;;
75426;SDS011;64007;50.632;13.700;2023-12-14T03:27:30;9.13;;;3.90;;
75426;SDS011;64007;50.632;13.700;2023-12-14T03:29:56;6.47;;;3.70;;
75426;SDS011;64007;50.632;13.700;2023-12-14T03:32:21;9.07;;;3.53;;
75426;SDS011;64007;50.632;13.700;2023-12-14T03:34:47;7.35;;;4.05;;
75426;SDS011;64007;50.632;13.700;2023-12-14T03:37:13;7.05;;;3.92;;
75426;SDS011;64007;50.632;13.700;2023-12-14T03:39:38;36.17;;;5.43;;
75426;SDS011;64007;50.632;13.700;2023-12-14T03:42:04;11.52;;;4.65;;
75426;SDS011;64007;50.632;13.700;2023-12-14T03:44:30;10.15;;;4.15;;
75426;SDS011;64007;50.632;13.700;2023-12-14T03:46:55;10.10;;;4.35;;
75426;SDS011;64007;50.632;13.700;2023-12-14T03:49:23;10.20;;;4.28;;
75426;SDS011;64007;50.632;13.700;2023-12-14T03:51:49;23.52;;;4.97;;
75426;SDS011;64007;50.632;13.700;2023-12-14T03:54:15;14.27;;;4.13;;
75426;SDS011;64007;50.632;13.700;2023-12-14T03:56:40;13.82;;;4.90;;
75426;SDS011;64007;50.632;13.700;2023-12-14T03:59:06;10.75;;;4.25;;
75426;SDS011;64007;50.632;13.700;2023-12-14T04:01:32;5.85;;;3.42;;
75426;SDS011;64007;50.632;13.700;2023-12-14T04:03:59;8.85;;;3.97;;
75426;SDS011;64007;50.632;13.700;2023-12-14T04:06:24;33.10;;;4.80;;
75426;SDS011;64007;50.632;13.700;2023-12-14T04:08:50;25.70;;;5.25;;
75426;SDS011;64007;50.632;13.700;2023-12-14T04:11:16;21.17;;;6.50;;
75426;SDS011;64007;50.632;13.700;2023-12-14T04:13:42;26.33;;;6.28;;
75426;SDS011;64007;50.632;13.700;2023-12-14T04:16:07;11.35;;;5.70;;
75426;SDS011;64007;50.632;13.700;2023-12-14T04:18:34;14.50;;;6.32;;
75426;SDS011;64007;50.632;13.700;2023-12-14T04:21:00;15.77;;;6.47;;
75426;SDS011;64007;50.632;13.700;2023-12-14T04:23:26;16.92;;;6.53;;
75426;SDS011;64007;50.632;13.700;2023-12-14T04:25:52;10.90;;;5.57;;
75426;SDS011;64007;50.632;13.700;2023-12-14T04:28:18;5.53;;;2.85;;
75426;SDS011;64007;50.632;13.700;2023-12-14T04:30:43;4.47;;;2.38;;
75426;SDS011;64007;50.632;13.700;2023-12-14T04:33:09;5.43;;;1.98;;
75426;SDS011;64007;50.632;13.700;2023-12-14T04:35:34;4.85;;;2.38;;
75426;SDS011;64007;50.632;13.700;2023-12-14T04:38:02;14.25;;;4.50;;
75426;SDS011;64007;50.632;13.700;2023-12-14T04:40:27;13.45;;;5.68;;
75426;SDS011;64007;50.632;13.700;2023-12-14T04:42:53;20.30;;;7.60;;
75426;SDS011;64007;50.632;13.700;2023-12-14T04:45:19;37.47;;;7.78;;
75426;SDS011;64007;50.632;13.700;2023-12-14T04:47:45;51.97;;;10.23;;
75426;SDS011;64007;50.632;13.700;2023-12-14T04:50:10;74.13;;;11.90;;
75426;SDS011;64007;50.632;13.700;2023-12-14T04:52:37;71.00;;;12.23;;
75426;SDS011;64007;50.632;13.700;2023-12-14T04:55:03;36.25;;;11.05;;
75426;SDS011;64007;50.632;13.700;2023-12-14T04:57:29;56.75;;;11.00;;
75426;SDS011;64007;50.632;13.700;2023-12-14T04:59:54;45.00;;;10.50;;
75426;SDS011;64007;50.632;13.700;2023-12-14T05:02:20;33.80;;;10.90;;
75426;SDS011;64007;50.632;13.700;2023-12-14T05:04:46;40.63;;;11.07;;
75426;SDS011;64007;50.632;13.700;2023-12-14T05:07:12;31.35;;;9.85;;
75426;SDS011;64007;50.632;13.700;2023-12-14T05:09:37;19.20;;;8.65;;
75426;SDS011;64007;50.632;13.700;2023-12-14T05:12:03;20.75;;;8.40;;
75426;SDS011;64007;50.632;13.700;2023-12-14T05:14:29;19.23;;;8.43;;
75426;SDS011;64007;50.632;13.700;2023-12-14T05:16:55;22.02;;;9.18;;
75426;SDS011;64007;50.632;13.700;2023-12-14T05:19:20;22.30;;;9.00;;
75426;SDS011;64007;50.632;13.700;2023-12-14T05:21:47;19.20;;;8.57;;
75426;SDS011;64007;50.632;13.700;2023-12-14T05:24:13;20.23;;;8.57;;
75426;SDS011;64007;50.632;13.700;2023-12-14T05:26:39;47.22;;;9.52;;
75426;SDS011;64007;50.632;13.700;2023-12-14T05:29:04;25.30;;;9.18;;
75426;SDS011;64007;50.632;13.700;2023-12-14T05:31:30;32.47;;;9.18;;
75426;SDS011;64007;50.632;13.700;2023-12-14T05:33:56;24.70;;;10.38;;
75426;SDS011;64007;50.632;13.700;2023-12-14T05:36:22;26.42;;;9.88;;
75426;SDS011;64007;50.632;13.700;2023-12-14T05:38:47;33.67;;;9.45;;
75426;SDS011;64007;50.632;13.700;2023-12-14T05:41:13;19.55;;;8.38;;
75426;SDS011;64007;50.632;13.700;2023-12-14T05:43:39;26.15;;;10.98;;
75426;SDS011;64007;50.632;13.700;2023-12-14T05:46:05;28.88;;;8.60;;
75426;SDS011;64007;50.632;13.700;2023-12-14T05:48:30;19.35;;;8.13;;
75426;SDS011;64007;50.632;13.700;2023-12-14T05:50:56;15.55;;;8.13;;
75426;SDS011;64007;50.632;13.700;2023-12-14T05:53:22;19.95;;;8.48;;
75426;SDS011;64007;50.632;13.700;2023-12-14T05:55:48;17.77;;;7.25;;
75426;SDS011;64007;50.632;13.700;2023-12-14T05:58:14;20.92;;;7.22;;
75426;SDS011;64007;50.632;13.700;2023-12-14T06:00:40;11.75;;;5.25;;
75426;SDS011;64007;50.632;13.700;2023-12-14T06:03:05;17.98;;;4.97;;
75426;SDS011;64007;50.632;13.700;2023-12-14T06:05:32;11.38;;;5.78;;
75426;SDS011;64007;50.632;13.700;2023-12-14T06:07:57;14.90;;;7.75;;
75426;SDS011;64007;50.632;13.700;2023-12-14T06:10:23;19.73;;;8.85;;
75426;SDS011;64007;50.632;13.700;2023-12-14T06:12:49;13.05;;;6.80;;
75426;SDS011;64007;50.632;13.700;2023-12-14T06:15:15;18.05;;;8.40;;
75426;SDS011;64007;50.632;13.700;2023-12-14T06:17:40;17.45;;;7.38;;
75426;SDS011;64007;50.632;13.700;2023-12-14T06:20:08;12.90;;;5.78;;
75426;SDS011;64007;50.632;13.700;2023-12-14T06:22:35;13.85;;;5.90;;
75426;SDS011;64007;50.632;13.700;2023-12-14T06:25:01;11.13;;;5.65;;
75426;SDS011;64007;50.632;13.700;2023-12-14T06:27:28;13.48;;;5.65;;
75426;SDS011;64007;50.632;13.700;2023-12-14T06:29:54;11.77;;;5.18;;
75426;SDS011;64007;50.632;13.700;2023-12-14T06:32:20;14.38;;;4.60;;
75426;SDS011;64007;50.632;13.700;2023-12-14T06:34:46;13.65;;;5.32;;
75426;SDS011;64007;50.632;13.700;2023-12-14T06:37:12;13.45;;;5.85;;
75426;SDS011;64007;50.632;13.700;2023-12-14T06:39:40;7.38;;;4.07;;
75426;SDS011;64007;50.632;13.700;2023-12-14T06:42:06;11.95;;;4.50;;
75426;SDS011;64007;50.632;13.700;2023-12-14T06:44:32;12.18;;;5.05;;
75426;SDS011;64007;50.632;13.700;2023-12-14T06:46:57;12.88;;;5.07;;
75426;SDS011;64007;50.632;13.700;2023-12-14T06:49:23;13.38;;;5.28;;
75426;SDS011;64007;50.632;13.700;2023-12-14T06:51:50;10.13;;;4.88;;
75426;SDS011;64007;50.632;13.700;2023-12-14T06:54:16;12.48;;;5.93;;
75426;SDS011;64007;50.632;13.700;2023-12-14T06:56:41;12.40;;;5.45;;
75426;SDS011;64007;50.632;13.700;2023-12-14T06:59:07;15.93;;;7.05;;
75426;SDS011;64007;50.632;13.700;2023-12-14T07:01:32;20.23;;;8.80;;
75426;SDS011;64007;50.632;13.700;2023-12-14T07:03:58;22.67;;;9.95;;
75426;SDS011;64007;50.632;13.700;2023-12-14T07:06:24;21.40;;;7.80;;
75426;SDS011;64007;50.632;13.700;2023-12-14T07:08:50;16.67;;;6.50;;
75426;SDS011;64007;50.632;13.700;2023-12-14T07:11:15;19.58;;;6.90;;
75426;SDS011;64007;50.632;13.700;2023-12-14T07:13:41;14.98;;;6.78;;
75426;SDS011;64007;50.632;13.700;2023-12-14T07:16:07;16.52;;;7.53;;
75426;SDS011;64007;50.632;13.700;2023-12-14T07:18:38;14.13;;;6.53;;
75426;SDS011;64007;50.632;13.700;2023-12-14T07:21:04;13.10;;;5.47;;
75426;SDS011;64007;50.632;13.700;2023-12-14T07:23:31;6.82;;;2.88;;
75426;SDS011;64007;50.632;13.700;2023-12-14T07:25:57;9.57;;;3.72;;
75426;SDS011;64007;50.632;13.700;2023-12-14T07:28:23;6.78;;;2.90;;
75426;SDS011;64007;50.632;13.700;2023-12-14T07:30:49;7.55;;;2.92;;
75426;SDS011;64007;50.632;13.700;2023-12-14T07:33:15;8.55;;;2.78;;
75426;SDS011;64007;50.632;13.700;2023-12-14T07:35:41;5.32;;;2.80;;
75426;SDS011;64007;50.632;13.700;2023-12-14T07:38:08;4.22;;;2.80;;
75426;SDS011;64007;50.632;13.700;2023-12-14T07:40:35;30.05;;;10.10;;
75426;SDS011;64007;50.632;13.700;2023-12-14T07:43:01;30.73;;;10.77;;
75426;SDS011;64007;50.632;13.700;2023-12-14T07:45:27;26.25;;;9.80;;
75426;SDS011;64007;50.632;13.700;2023-12-14T07:47:53;25.00;;;9.10;;
75426;SDS011;64007;50.632;13.700;2023-12-14T07:50:19;62.70;;;12.77;;
75426;SDS011;64007;50.632;13.700;2023-12-14T07:52:45;117.22;;;15.80;;
75426;SDS011;64007;50.632;13.700;2023-12-14T07:55:10;127.47;;;16.25;;
75426;SDS011;64007;50.632;13.700;2023-12-14T07:57:39;82.65;;;16.80;;
75426;SDS011;64007;50.632;13.700;2023-12-14T08:00:05;67.47;;;16.70;;
75426;SDS011;64007;50.632;13.700;2023-12-14T08:02:34;47.65;;;14.30;;
75426;SDS011;64007;50.632;13.700;2023-12-14T08:04:59;61.83;;;14.88;;
75426;SDS011;64007;50.632;13.700;2023-12-14T08:07:25;136.43;;;19.92;;
75426;SDS011;64007;50.632;13.700;2023-12-14T08:09:57;58.53;;;16.60;;
75426;SDS011;64007;50.632;13.700;2023-12-14T08:12:23;63.20;;;16.60;;
75426;SDS011;64007;50.632;13.700;2023-12-14T08:14:49;57.00;;;15.10;;
75426;SDS011;64007;50.632;13.700;2023-12-14T08:17:15;30.23;;;10.82;;
75426;SDS011;64007;50.632;13.700;2023-12-14T08:19:41;33.67;;;9.10;;
75426;SDS011;64007;50.632;13.700;2023-12-14T08:22:08;8.25;;;2.38;;
75426;SDS011;64007;50.632;13.700;2023-12-14T08:24:36;5.68;;;1.88;;
75426;SDS011;64007;50.632;13.700;2023-12-14T08:27:03;3.75;;;1.70;;
75426;SDS011;64007;50.632;13.700;2023-12-14T08:29:28;5.70;;;2.40;;
75426;SDS011;64007;50.632;13.700;2023-12-14T08:31:54;5.00;;;2.00;;
75426;SDS011;64007;50.632;13.700;2023-12-14T08:34:25;3.10;;;1.70;;
75426;SDS011;64007;50.632;13.700;2023-12-14T08:36:51;3.50;;;1.98;;
75426;SDS011;64007;50.632;13.700;2023-12-14T08:39:17;14.55;;;3.97;;
75426;SDS011;64007;50.632;13.700;2023-12-14T08:41:45;12.20;;;4.00;;
75426;SDS011;64007;50.632;13.700;2023-12-14T08:44:11;13.60;;;4.70;;
75426;SDS011;64007;50.632;13.700;2023-12-14T08:46:44;5.30;;;2.35;;
75426;SDS011;64007;50.632;13.700;2023-12-14T08:49:11;3.30;;;1.80;;
75426;SDS011;64007;50.632;13.700;2023-12-14T08:51:37;2.22;;;1.27;;
75426;SDS011;64007;50.632;13.700;2023-12-14T08:54:03;1.90;;;0.88;;
75426;SDS011;64007;50.632;13.700;2023-12-14T08:56:29;1.52;;;1.10;;
75426;SDS011;64007;50.632;13.700;2023-12-14T08:58:55;1.75;;;1.27;;
75426;SDS011;64007;50.632;13.700;2023-12-14T09:01:22;1.95;;;1.00;;
75426;SDS011;64007;50.632;13.700;2023-12-14T09:03:49;1.02;;;0.80;;
75426;SDS011;64007;50.632;13.700;2023-12-14T09:06:17;5.43;;;2.10;;
75426;SDS011;64007;50.632;13.700;2023-12-14T09:08:46;3.38;;;2.05;;
75426;SDS011;64007;50.632;13.700;2023-12-14T09:11:12;13.30;;;3.80;;
75426;SDS011;64007;50.632;13.700;2023-12-14T09:13:37;15.73;;;4.95;;
75426;SDS011;64007;50.632;13.700;2023-12-14T09:16:03;17.98;;;6.63;;
75426;SDS011;64007;50.632;13.700;2023-12-14T09:18:29;21.58;;;6.55;;
75426;SDS011;64007;50.632;13.700;2023-12-14T09:20:56;26.38;;;7.55;;
75426;SDS011;64007;50.632;13.700;2023-12-14T09:23:21;21.38;;;7.35;;
75426;SDS011;64007;50.632;13.700;2023-12-14T09:25:47;24.50;;;8.18;;
75426;SDS011;64007;50.632;13.700;2023-12-14T09:28:13;34.42;;;8.77;;
75426;SDS011;64007;50.632;13.700;2023-12-14T09:30:39;24.63;;;8.43;;
75426;SDS011;64007;50.632;13.700;2023-12-14T09:33:04;26.75;;;8.68;;
75426;SDS011;64007;50.632;13.700;2023-12-14T09:35:31;35.45;;;8.70;;
75426;SDS011;64007;50.632;13.700;2023-12-14T09:37:57;23.55;;;7.97;;
75426;SDS011;64007;50.632;13.700;2023-12-14T09:40:22;26.42;;;7.55;;
75426;SDS011;64007;50.632;13.700;2023-12-14T09:42:49;25.23;;;7.32;;
75426;SDS011;64007;50.632;13.700;2023-12-14T09:45:16;23.92;;;6.35;;
75426;SDS011;64007;50.632;13.700;2023-12-14T09:47:42;23.38;;;6.43;;
75426;SDS011;64007;50.632;13.700;2023-12-14T09:50:11;18.52;;;5.95;;
75426;SDS011;64007;50.632;13.700;2023-12-14T09:52:39;20.20;;;6.28;;
75426;SDS011;64007;50.632;13.700;2023-12-14T09:55:05;18.75;;;5.90;;
75426;SDS011;64007;50.632;13.700;2023-12-14T09:57:31;15.23;;;5.47;;
75426;SDS011;64007;50.632;13.700;2023-12-14T09:59:57;16.77;;;5.68;;
75426;SDS011;64007;50.632;13.700;2023-12-14T10:02:26;15.20;;;5.70;;
75426;SDS011;64007;50.632;13.700;2023-12-14T10:04:55;15.93;;;5.65;;
75426;SDS011;64007;50.632;13.700;2023-12-14T10:07:21;17.50;;;5.32;;
75426;SDS011;64007;50.632;13.700;2023-12-14T10:09:47;13.68;;;5.00;;
75426;SDS011;64007;50.632;13.700;2023-12-14T10:12:13;20.67;;;7.68;;
75426;SDS011;64007;50.632;13.700;2023-12-14T10:14:39;17.15;;;7.65;;
75426;SDS011;64007;50.632;13.700;2023-12-14T10:19:44;15.45;;;5.13;;
75426;SDS011;64007;50.632;13.700;2023-12-14T10:22:11;16.13;;;5.28;;
75426;SDS011;64007;50.632;13.700;2023-12-14T10:24:39;20.98;;;5.05;;
75426;SDS011;64007;50.632;13.700;2023-12-14T10:27:06;7.50;;;2.65;;
75426;SDS011;64007;50.632;13.700;2023-12-14T10:29:37;4.85;;;2.05;;
75426;SDS011;64007;50.632;13.700;2023-12-14T10:32:04;7.97;;;2.40;;
75426;SDS011;64007;50.632;13.700;2023-12-14T10:34:35;5.22;;;1.90;;
75426;SDS011;64007;50.632;13.700;2023-12-14T10:37:01;4.78;;;1.50;;
75426;SDS011;64007;50.632;13.700;2023-12-14T10:39:30;2.97;;;1.30;;
75426;SDS011;64007;50.632;13.700;2023-12-14T10:41:58;1.98;;;1.20;;
75426;SDS011;64007;50.632;13.700;2023-12-14T10:44:29;2.25;;;1.38;;
75426;SDS011;64007;50.632;13.700;2023-12-14T10:46:57;4.60;;;1.40;;
75426;SDS011;64007;50.632;13.700;2023-12-14T10:49:24;5.50;;;1.33;;
75426;SDS011;64007;50.632;13.700;2023-12-14T10:51:54;3.58;;;1.58;;
75426;SDS011;64007;50.632;13.700;2023-12-14T10:54:23;5.38;;;1.52;;
75426;SDS011;64007;50.632;13.700;2023-12-14T10:56:50;2.63;;;1.70;;
75426;SDS011;64007;50.632;13.700;2023-12-14T10:59:21;3.75;;;1.60;;
75426;SDS011;64007;50.632;13.700;2023-12-14T11:01:51;3.47;;;1.35;;
75426;SDS011;64007;50.632;13.700;2023-12-14T11:04:18;3.60;;;1.42;;
75426;SDS011;64007;50.632;13.700;2023-12-14T11:06:46;4.00;;;1.25;;
75426;SDS011;64007;50.632;13.700;2023-12-14T11:09:13;4.68;;;1.73;;
75426;SDS011;64007;50.632;13.700;2023-12-14T11:14:15;2.88;;;1.45;;
75426;SDS011;64007;50.632;13.700;2023-12-14T11:16:43;3.97;;;1.98;;
75426;SDS011;64007;50.632;13.700;2023-12-14T11:21:47;3.60;;;1.52;;
75426;SDS011;64007;50.632;13.700;2023-12-14T11:24:34;3.97;;;1.63;;
75426;SDS011;64007;50.632;13.700;2023-12-14T11:27:07;2.63;;;1.40;;
75426;SDS011;64007;50.632;13.700;2023-12-14T11:29:33;2.50;;;1.35;;
75426;SDS011;64007;50.632;13.700;2023-12-14T11:32:01;2.88;;;1.63;;
75426;SDS011;64007;50.632;13.700;2023-12-14T11:34:28;5.53;;;1.80;;
75426;SDS011;64007;50.632;13.700;2023-12-14T11:36:56;3.58;;;1.65;;
75426;SDS011;64007;50.632;13.700;2023-12-14T11:39:22;3.25;;;1.33;;
75426;SDS011;64007;50.632;13.700;2023-12-14T11:41:58;4.18;;;1.63;;
75426;SDS011;64007;50.632;13.700;2023-12-14T11:44:27;4.75;;;2.00;;
75426;SDS011;64007;50.632;13.700;2023-12-14T11:46:53;3.05;;;1.60;;
75426;SDS011;64007;50.632;13.700;2023-12-14T11:49:19;5.40;;;2.30;;
75426;SDS011;64007;50.632;13.700;2023-12-14T11:51:46;6.47;;;2.10;;
75426;SDS011;64007;50.632;13.700;2023-12-14T11:54:13;5.60;;;2.25;;
75426;SDS011;64007;50.632;13.700;2023-12-14T11:56:45;3.38;;;1.77;;
75426;SDS011;64007;50.632;13.700;2023-12-14T11:59:11;5.20;;;1.90;;
75426;SDS011;64007;50.632;13.700;2023-12-14T12:01:37;2.72;;;1.60;;
75426;SDS011;64007;50.632;13.700;2023-12-14T12:04:09;4.22;;;1.52;;
75426;SDS011;64007;50.632;13.700;2023-12-14T12:06:35;4.43;;;1.20;;
75426;SDS011;64007;50.632;13.700;2023-12-14T12:09:01;2.25;;;1.23;;
75426;SDS011;64007;50.632;13.700;2023-12-14T12:11:32;2.90;;;1.30;;
75426;SDS011;64007;50.632;13.700;2023-12-14T12:13:58;1.20;;;0.88;;
75426;SDS011;64007;50.632;13.700;2023-12-14T12:16:25;1.77;;;1.08;;
75426;SDS011;64007;50.632;13.700;2023-12-14T12:18:51;3.08;;;1.30;;
75426;SDS011;64007;50.632;13.700;2023-12-14T12:21:17;2.00;;;1.08;;
75426;SDS011;64007;50.632;13.700;2023-12-14T12:23:43;1.30;;;0.88;;
75426;SDS011;64007;50.632;13.700;2023-12-14T12:26:09;2.25;;;1.00;;
75426;SDS011;64007;50.632;13.700;2023-12-14T12:28:35;1.33;;;1.00;;
75426;SDS011;64007;50.632;13.700;2023-12-14T12:31:01;2.05;;;1.02;;
75426;SDS011;64007;50.632;13.700;2023-12-14T12:33:27;1.48;;;0.80;;
75426;SDS011;64007;50.632;13.700;2023-12-14T12:35:53;1.13;;;0.93;;
75426;SDS011;64007;50.632;13.700;2023-12-14T12:38:20;1.25;;;0.82;;
75426;SDS011;64007;50.632;13.700;2023-12-14T12:40:45;2.47;;;1.17;;
75426;SDS011;64007;50.632;13.700;2023-12-14T12:43:12;1.77;;;0.93;;
75426;SDS011;64007;50.632;13.700;2023-12-14T12:45:39;2.33;;;1.10;;
75426;SDS011;64007;50.632;13.700;2023-12-14T12:48:05;2.03;;;1.23;;
75426;SDS011;64007;50.632;13.700;2023-12-14T12:50:32;2.15;;;1.17;;
75426;SDS011;64007;50.632;13.700;2023-12-14T12:52:58;1.92;;;1.00;;
75426;SDS011;64007;50.632;13.700;2023-12-14T12:55:24;2.03;;;1.20;;
75426;SDS011;64007;50.632;13.700;2023-12-14T12:57:50;1.95;;;0.93;;
75426;SDS011;64007;50.632;13.700;2023-12-14T13:00:15;2.85;;;1.40;;
75426;SDS011;64007;50.632;13.700;2023-12-14T13:02:42;1.63;;;0.95;;
75426;SDS011;64007;50.632;13.700;2023-12-14T13:05:10;2.15;;;1.20;;
75426;SDS011;64007;50.632;13.700;2023-12-14T13:07:36;3.90;;;1.40;;
75426;SDS011;64007;50.632;13.700;2023-12-14T13:10:03;3.05;;;1.27;;
75426;SDS011;64007;50.632;13.700;2023-12-14T13:12:32;1.85;;;1.00;;
75426;SDS011;64007;50.632;13.700;2023-12-14T13:14:59;1.90;;;1.00;;
75426;SDS011;64007;50.632;13.700;2023-12-14T13:17:25;2.03;;;1.10;;
75426;SDS011;64007;50.632;13.700;2023-12-14T13:19:51;1.95;;;1.00;;
75426;SDS011;64007;50.632;13.700;2023-12-14T13:22:18;2.45;;;0.98;;
75426;SDS011;64007;50.632;13.700;2023-12-14T13:24:44;3.35;;;1.05;;
75426;SDS011;64007;50.632;13.700;2023-12-14T13:27:11;2.83;;;1.10;;
75426;SDS011;64007;50.632;13.700;2023-12-14T13:29:37;1.88;;;1.00;;
75426;SDS011;64007;50.632;13.700;2023-12-14T13:32:03;2.40;;;1.00;;
75426;SDS011;64007;50.632;13.700;2023-12-14T13:34:28;1.25;;;0.70;;
75426;SDS011;64007;50.632;13.700;2023-12-14T13:36:55;1.27;;;0.73;;
75426;SDS011;64007;50.632;13.700;2023-12-14T13:39:21;0.68;;;0.47;;
75426;SDS011;64007;50.632;13.700;2023-12-14T13:41:47;0.40;;;0.40;;
75426;SDS011;64007;50.632;13.700;2023-12-14T13:44:14;1.67;;;0.60;;
75426;SDS011;64007;50.632;13.700;2023-12-14T13:46:40;1.73;;;0.63;;
75426;SDS011;64007;50.632;13.700;2023-12-14T13:49:05;0.98;;;0.65;;
75426;SDS011;64007;50.632;13.700;2023-12-14T13:51:31;1.42;;;0.60;;
75426;SDS011;64007;50.632;13.700;2023-12-14T13:53:57;1.58;;;0.90;;
75426;SDS011;64007;50.632;13.700;2023-12-14T13:56:23;1.92;;;0.88;;
75426;SDS011;64007;50.632;13.700;2023-12-14T13:58:49;1.10;;;0.65;;
75426;SDS011;64007;50.632;13.700;2023-12-14T14:01:15;1.42;;;0.80;;
75426;SDS011;64007;50.632;13.700;2023-12-14T14:03:41;0.80;;;0.60;;
75426;SDS011;64007;50.632;13.700;2023-12-14T14:06:07;0.90;;;0.70;;
75426;SDS011;64007;50.632;13.700;2023-12-14T14:08:34;1.80;;;0.90;;
75426;SDS011;64007;50.632;13.700;2023-12-14T14:11:00;1.63;;;0.80;;
75426;SDS011;64007;50.632;13.700;2023-12-14T14:13:28;1.75;;;1.13;;
75426;SDS011;64007;50.632;13.700;2023-12-14T14:15:54;0.60;;;0.50;;
75426;SDS011;64007;50.632;13.700;2023-12-14T14:18:20;0.88;;;0.70;;
75426;SDS011;64007;50.632;13.700;2023-12-14T14:20:46;2.00;;;0.80;;
75426;SDS011;64007;50.632;13.700;2023-12-14T14:23:11;3.33;;;1.55;;
75426;SDS011;64007;50.632;13.700;2023-12-14T14:25:37;2.60;;;1.15;;
75426;SDS011;64007;50.632;13.700;2023-12-14T14:28:03;2.40;;;1.50;;
75426;SDS011;64007;50.632;13.700;2023-12-14T14:30:29;1.73;;;1.10;;